Latest Weather Observations for Walgett

IDN60801

Issued at 9:32 pm EST Saturday 18 April 2015 (issued every 30 minutes, with the page automatically refreshed every 10 minutes)

About weather observations | Map of weather stations | Latest weather observations for NSW | Other Formats
Station Details ID: 052088 Name: WALGETT AIRPORT AWS Lat: -30.04 Lon: 148.12 Height: 133.0 m
Data from the previous 72 hours. | See also: Recent months at Walgett
Date/Time
EST
Temp
°C
App
Temp
°C
Dew
Point
Rel
Hum
%
Delta-T
°C
Wind Press
QNH
hPa
Press
MSL
hPa
Rain
since 9 am
mm
Dir
 
Spd
km/h
Gust
km/h
Spd
kts
Gust
kts
18/09:00pm 17.8 18.5 16.1 90 1.0 SSW 7 9 4 5 1019.0 1018.6 6.0
18/08:53pm 18.0 19.2 16.0 88 1.2 SSW 4 9 2 5 1018.9 1018.5 5.0
18/08:48pm 18.2 20.3 16.2 88 1.2 CALM 0 9 0 5 1018.8 1018.4 4.8
18/08:30pm 18.3 19.1 15.9 86 1.4 SSW 6 7 3 4 1018.9 1018.5 4.2
18/08:00pm 18.2 19.0 15.8 86 1.4 SW 6 7 3 4 1018.6 1018.2 4.2
18/07:30pm 18.8 16.9 15.1 79 2.2 SW 19 26 10 14 1018.2 1017.8 4.0
18/07:18pm 19.1 16.5 15.0 77 2.4 SW 22 30 12 16 1018.3 1017.9 4.0
18/07:00pm 19.3 17.6 15.8 80 2.1 SW 19 28 10 15 1018.2 1017.8 4.0
18/06:51pm 19.4 18.2 16.1 81 2.0 SW 17 28 9 15 1018.1 1017.7 4.0
18/06:37pm 19.3 18.2 17.3 88 1.2 SW 19 24 10 13 1017.5 1017.1 4.0
18/06:30pm 19.4 18.5 17.7 90 1.0 SW 19 22 10 12 1017.4 1017.0 4.0
18/06:23pm 19.5 19.0 17.8 90 1.1 SW 17 24 9 13 1017.3 1016.9 3.8
18/06:00pm 20.3 19.0 17.3 83 1.8 SW 20 28 11 15 1017.5 1017.1 2.0
18/05:40pm 21.1 19.5 16.5 75 2.8 WSW 20 32 11 17 1016.9 1016.6 0.6
18/05:30pm 22.5 20.2 15.6 65 4.2 SW 22 33 12 18 1016.3 1016.0 0.0
18/05:00pm 25.4 23.5 15.1 53 6.2 N 19 30 10 16 1014.9 1014.5 0.0
18/04:34pm 26.5 22.8 14.9 49 7.0 NNE 28 48 15 26 1014.8 1014.4 0.0
18/04:30pm 27.1 24.1 14.8 47 7.5 N 24 35 13 19 1014.9 1014.5 0.0
18/04:00pm 28.4 24.9 13.5 40 8.9 NNW 24 32 13 17 1014.8 1014.4 0.0
18/03:30pm 28.6 25.7 14.1 41 8.7 N 22 32 12 17 1014.9 1014.5 0.0
18/03:00pm 29.7 26.4 13.9 38 9.5 NNW 24 35 13 19 1015.1 1014.7 0.0
18/02:30pm 29.1 25.7 13.7 38 9.2 N 24 35 13 19 1015.3 1015.0 0.0
18/02:00pm 28.7 25.4 14.9 43 8.4 N 26 35 14 19 1015.7 1015.4 0.0
18/01:30pm 27.5 23.9 14.2 44 8.0 N 26 43 14 23 1015.9 1015.6 0.0
18/01:00pm 27.7 23.8 14.3 43 8.1 N 28 37 15 20 1016.3 1016.0 0.0
18/12:30pm 28.0 24.2 14.6 44 8.1 N 28 39 15 21 1016.9 1016.6 0.0
18/12:00pm 27.5 23.5 15.2 47 7.5 N 30 43 16 23 1017.5 1017.1 0.0
18/11:30am 26.3 21.7 14.7 48 7.0 N 32 41 17 22 1018.0 1017.6 0.0
18/11:18am 26.4 21.8 14.5 48 7.2 N 32 50 17 27 1018.2 1017.8 0.0
18/11:00am 27.1 22.4 14.8 47 7.4 N 33 48 18 26 1018.4 1018.0 0.0
18/10:30am 25.0 21.3 15.0 53 6.0 N 28 39 15 21 1018.8 1018.4 0.0
18/10:00am 24.2 20.1 14.9 56 5.6 N 30 41 16 22 1019.1 1018.7 0.0
18/09:30am 23.7 19.6 14.9 57 5.3 N 30 39 16 21 1019.7 1019.3 0.0
18/09:00am 23.3 18.9 15.1 60 4.9 N 32 44 17 24 1019.7 1019.3 0.0
18/08:30am 22.8 18.3 14.9 61 4.7 NNE 32 44 17 24 1019.3 1018.9 0.0
18/08:16am 22.6 18.2 15.2 63 4.4 NNE 32 50 17 27 1019.2 1018.8 0.0
18/08:00am 22.3 17.8 14.9 63 4.4 NNE 32 43 17 23 1018.9 1018.5 0.0
18/07:30am 22.0 17.9 14.9 64 4.2 NNE 30 41 16 22 1018.8 1018.4 0.0
18/07:00am 21.7 17.9 14.6 64 4.2 NNE 28 41 15 22 1018.6 1018.2 0.0
18/06:30am 21.7 18.2 14.6 64 4.2 NNE 26 33 14 18 1018.3 1017.9 0.0
18/06:00am 21.7 17.9 14.6 64 4.2 NNE 28 39 15 21 1017.9 1017.5 0.0
18/05:30am 21.9 18.0 14.3 62 4.5 NNE 28 35 15 19 1017.8 1017.4 0.0
18/05:00am 21.9 17.9 14.0 61 4.6 NNE 28 37 15 20 1017.6 1017.2 0.0
18/04:30am 22.0 17.8 13.4 58 5.0 NNE 28 35 15 19 1017.4 1017.0 0.0
18/04:00am 22.0 18.0 13.1 57 5.1 NNE 26 37 14 20 1017.4 1017.0 0.0
18/03:30am 22.2 18.5 12.7 55 5.4 NNE 24 32 13 17 1017.3 1016.9 0.0
18/03:00am 22.3 18.9 12.5 53 5.6 NE 22 32 12 17 1017.4 1017.0 0.0
18/02:30am 22.4 19.3 12.1 52 5.8 NE 20 28 11 15 1017.6 1017.2 0.0
18/02:00am 22.9 19.4 12.2 51 6.1 NNE 22 30 12 16 1017.8 1017.4 0.0
18/01:30am 23.1 19.5 11.8 49 6.4 NNE 22 32 12 17 1018.1 1017.7 0.0
18/01:00am 23.8 19.0 11.8 47 6.8 NNE 28 39 15 21 1018.1 1017.7 0.0
18/12:30am 23.0 19.6 11.4 48 6.5 NE 20 28 11 15 1018.0 1017.6 0.0
18/12:00am 22.5 19.6 10.9 48 6.4 NE 17 20 9 11 1018.1 1017.7 0.0
 
Date/Time
EST
Temp
°C
App
Temp
°C
Dew
Point
Rel
Hum
%
Delta-T
°C
Wind Press
QNH
hPa
Press
MSL
hPa
Rain
since 9 am
mm
Dir
 
Spd
km/h
Gust
km/h
Spd
kts
Gust
kts
17/11:30pm 21.4 18.6 9.9 48 6.2 NE 15 17 8 9 1018.2 1017.8 0.0
17/11:00pm 21.9 19.6 10.4 48 6.3 NE 13 15 7 8 1018.5 1018.1 0.0
17/10:30pm 20.7 18.7 8.7 46 6.4 NNE 9 11 5 6 1019.2 1018.8 0.0
17/10:00pm 22.0 19.8 9.5 45 6.7 NNE 11 11 6 6 1019.5 1019.1 0.0
17/09:30pm 22.8 20.7 9.6 43 7.2 NNE 11 13 6 7 1019.3 1018.9 0.0
17/09:00pm 23.3 20.7 9.3 41 7.6 NE 13 17 7 9 1018.9 1018.5 0.0
17/08:30pm 24.0 20.9 8.8 38 8.2 NE 15 17 8 9 1018.8 1018.4 0.0
17/08:00pm 25.6 22.3 9.4 36 8.9 NE 17 20 9 11 1018.5 1018.1 0.0
17/07:30pm 26.4 23.0 9.3 34 9.4 NE 17 20 9 11 1018.3 1017.9 0.0
17/07:00pm 27.1 24.0 9.0 32 10.0 NE 15 17 8 9 1018.0 1017.6 0.0
17/06:30pm 28.1 24.6 8.9 30 10.6 NE 17 20 9 11 1017.5 1017.1 0.0
17/06:00pm 28.6 24.6 8.3 28 11.1 NE 19 28 10 15 1017.3 1016.9 0.0
17/05:30pm 29.6 25.1 8.6 27 11.6 NE 22 28 12 15 1017.1 1016.8 0.0
17/05:00pm 30.0 26.1 9.5 28 11.5 NNE 20 28 11 15 1016.9 1016.6 0.0
17/04:30pm 30.5 26.6 9.4 27 11.9 NNE 20 26 11 14 1017.0 1016.7 0.0
17/04:00pm 31.4 27.9 10.2 27 12.2 ENE 19 28 10 15 1017.0 1016.7 0.0
17/03:30pm 31.3 28.1 11.1 29 11.8 NNE 19 28 10 15 1017.4 1017.0 0.0
17/03:00pm 31.8 29.2 12.1 30 11.6 NE 17 24 9 13 1017.6 1017.2 0.0
17/02:30pm 30.9 27.7 11.3 30 11.4 NNE 19 30 10 16 1018.1 1017.7 0.0
17/02:00pm 30.6 26.9 11.5 30 11.1 NNE 22 30 12 16 1018.4 1018.0 0.0
17/01:30pm 30.1 26.8 11.6 32 10.8 N 20 32 11 17 1018.8 1018.4 0.0
17/01:00pm 29.9 26.4 12.3 33 10.4 N 22 33 12 18 1019.4 1019.0 0.0
17/12:30pm 30.9 27.1 12.3 32 11.0 NNE 24 35 13 19 1020.1 1019.7 0.0
17/12:00pm 30.0 27.0 12.0 33 10.5 N 19 28 10 15 1020.6 1020.2 0.0
17/11:30am 29.9 26.7 11.9 33 10.5 N 20 28 11 15 1021.1 1020.7 0.0
17/11:00am 28.5 24.8 11.6 35 9.8 NNE 22 33 12 18 1021.6 1021.2 0.0
17/10:30am 28.7 25.6 12.2 36 9.7 NNE 20 28 11 15 1021.8 1021.5 0.0
17/10:00am 27.9 24.4 12.3 38 9.1 NNE 22 26 12 14 1022.2 1021.9 0.0
17/09:30am 27.2 24.2 12.4 40 8.6 N 20 28 11 15 1022.6 1022.3 0.0
17/09:00am 25.6 22.6 12.4 43 7.6 NNE 20 26 11 14 1022.7 1022.4 0.2
17/08:30am 24.2 21.1 12.2 47 6.9 NNE 20 28 11 15 1022.7 1022.4 0.2
17/08:00am 23.3 20.1 12.0 49 6.4 NNE 20 26 11 14 1022.4 1022.1 0.2
17/07:30am 21.0 18.7 11.9 56 5.1 NNE 15 19 8 10 1022.2 1021.9 0.2
17/07:00am 18.5 16.1 11.3 63 3.9 NE 15 17 8 9 1021.8 1021.5 0.2
17/06:30am 17.8 14.9 11.1 65 3.6 NNE 17 19 9 10 1021.6 1021.2 0.2
17/06:00am 18.4 16.1 11.9 66 3.6 NNE 15 17 8 9 1021.3 1020.9 0.2
17/05:30am 19.1 16.5 12.1 64 3.9 NNE 17 19 9 10 1021.1 1020.7 0.2
17/05:00am 18.6 16.3 11.7 64 3.8 NNE 15 17 8 9 1021.0 1020.6 0.2
17/04:30am 19.6 17.4 12.1 62 4.2 NNE 15 17 8 9 1020.7 1020.3 0.2
17/04:00am 19.3 17.7 11.6 61 4.3 NNE 11 13 6 7 1020.4 1020.0 0.2
17/03:30am 19.5 17.7 12.0 62 4.2 NNE 13 17 7 9 1020.1 1019.7 0.2
17/03:00am 19.6 17.7 11.9 61 4.3 NNE 13 15 7 8 1020.1 1019.7 0.2
17/02:30am 19.7 17.5 12.0 61 4.3 NNE 15 17 8 9 1020.4 1020.0 0.2
17/02:00am 19.4 17.4 11.4 60 4.4 NNE 13 15 7 8 1020.7 1020.3 0.2
17/01:30am 21.4 19.2 12.0 55 5.3 NNE 15 17 8 9 1021.1 1020.7 0.2
17/01:00am 21.6 19.5 12.5 56 5.2 NNE 15 17 8 9 1021.5 1021.1 0.2
17/12:30am 20.6 18.5 12.3 59 4.7 NNE 15 17 8 9 1021.7 1021.4 0.2
17/12:00am 21.9 20.2 12.5 55 5.3 NNE 13 15 7 8 1021.8 1021.5 0.2
 
Date/Time
EST
Temp
°C
App
Temp
°C
Dew
Point
Rel
Hum
%
Delta-T
°C
Wind Press
QNH
hPa
Press
MSL
hPa
Rain
since 9 am
mm
Dir
 
Spd
km/h
Gust
km/h
Spd
kts
Gust
kts
16/11:30pm 20.9 19.3 11.5 55 5.2 NNE 11 13 6 7 1021.9 1021.6 0.2
16/11:00pm 22.5 20.8 12.4 52 5.7 NNE 13 13 7 7 1021.9 1021.6 0.2
16/10:30pm 21.6 19.9 12.5 56 5.2 NNE 13 13 7 7 1022.0 1021.7 0.2
16/10:00pm 21.9 20.0 11.9 53 5.6 NNE 13 15 7 8 1022.1 1021.8 0.2
16/09:30pm 22.6 21.1 12.0 51 6.0 NNE 11 13 6 7 1022.2 1021.9 0.2
16/09:00pm 22.6 21.2 12.3 52 5.9 NNE 11 13 6 7 1021.9 1021.6 0.2
16/08:30pm 23.9 22.5 10.9 44 7.3 NE 9 11 5 6 1021.9 1021.6 0.2
16/08:00pm 24.7 23.5 11.6 44 7.4 NE 9 11 5 6 1021.6 1021.2 0.2
16/07:30pm 24.6 22.6 10.1 40 8.0 ENE 11 13 6 7 1021.3 1020.9 0.2
16/07:00pm 25.5 26.7 13.7 48 7.0 CALM 0 0 0 0 1020.9 1020.5 0.2
16/06:30pm 26.7 27.2 11.6 39 8.7 CALM 0 4 0 2 1020.7 1020.3 0.2
16/06:00pm 28.6 28.1 10.8 33 10.2 N 4 6 2 3 1020.5 1020.1 0.2
16/05:30pm 30.7 29.9 11.1 30 11.4 NNW 6 7 3 4 1020.4 1020.0 0.2
16/05:00pm 31.6 30.6 10.9 28 12.0 NE 7 9 4 5 1020.4 1020.0 0.2
16/04:30pm 31.8 30.8 11.0 28 12.1 ESE 7 11 4 6 1020.4 1020.0 0.2
16/04:00pm 32.6 31.7 11.2 27 12.5 SW 7 13 4 7 1020.4 1020.0 0.2
16/03:30pm 32.5 30.9 11.6 28 12.3 NNW 11 19 6 10 1020.6 1020.2 0.2
16/03:00pm 32.5 31.5 11.1 27 12.5 NNW 7 13 4 7 1020.7 1020.3 0.2
16/02:30pm 32.1 31.0 10.7 27 12.4 ENE 7 13 4 7 1021.0 1020.6 0.2
16/02:00pm 32.9 31.1 12.0 28 12.4 NW 13 20 7 11 1021.3 1020.9 0.2
16/01:30pm 32.0 30.8 11.7 28 12.0 NNW 9 13 5 7 1021.8 1021.5 0.2
16/01:00pm 31.3 29.4 11.7 30 11.5 N 13 20 7 11 1022.3 1022.0 0.2
16/12:30pm 31.5 30.1 12.3 31 11.4 NW 11 20 6 11 1022.8 1022.5 0.2
16/12:00pm 30.4 28.9 13.2 35 10.3 NNW 13 20 7 11 1023.5 1023.2 0.2
16/11:30am 30.3 28.6 13.6 36 10.1 NNW 15 20 8 11 1023.9 1023.6 0.2
16/11:00am 28.7 26.3 12.6 37 9.4 N 17 24 9 13 1024.2 1023.9 0.2
16/10:30am 28.6 27.1 15.2 44 8.2 N 17 22 9 12 1024.5 1024.2 0.2
16/10:00am 26.9 25.3 15.0 48 7.2 N 17 24 9 13 1024.7 1024.4 0.2
16/09:30am 25.6 23.2 15.3 53 6.3 N 22 28 12 15 1024.7 1024.4 0.2
16/09:00am 24.2 22.3 15.1 56 5.5 NNE 19 24 10 13 1025.1 1024.7 1.6
16/08:30am 22.9 21.3 15.0 61 4.7 NNE 17 22 9 12 1024.8 1024.5 1.6
16/08:00am 21.0 19.5 14.2 65 4.0 NE 15 19 8 10 1024.8 1024.5 1.6
16/07:30am 19.1 18.1 13.5 70 3.2 NE 11 15 6 8 1024.7 1024.4 1.6
16/07:00am 17.7 16.6 13.2 75 2.5 NE 11 13 6 7 1024.4 1024.1 1.6
16/06:30am 16.9 16.2 13.2 79 2.1 NE 9 11 5 6 1024.1 1023.8 1.6
16/06:00am 16.8 16.2 13.5 81 1.9 NE 9 13 5 7 1023.8 1023.5 1.6
16/05:30am 16.6 15.6 13.5 82 1.8 NE 11 13 6 7 1023.5 1023.2 1.6
16/05:00am 16.9 16.1 14.0 83 1.7 NE 11 13 6 7 1023.2 1022.9 1.6
16/04:30am 16.9 16.6 14.4 85 1.4 NNE 9 11 5 6 1023.0 1022.7 1.6
16/04:00am 17.4 17.3 13.9 80 2.0 NE 7 9 4 5 1022.8 1022.5 1.6
16/03:30am 18.4 18.4 14.3 77 2.4 N 7 9 4 5 1022.7 1022.4 1.6
16/03:00am 17.5 17.5 13.6 78 2.2 ENE 6 7 3 4 1022.6 1022.3 1.6
16/02:30am 18.7 18.2 13.8 73 2.8 ENE 9 11 5 6 1022.6 1022.3 1.6
16/02:00am 19.5 19.2 14.3 72 3.0 E 9 9 5 5 1022.6 1022.3 1.6
16/01:30am 20.1 19.8 14.5 70 3.3 E 9 13 5 7 1022.7 1022.4 1.6
16/01:00am 20.3 19.7 13.5 65 3.9 ESE 9 11 5 6 1022.8 1022.5 1.6
16/12:30am 20.8 20.0 12.8 60 4.6 ENE 9 13 5 7 1022.7 1022.4 1.6
16/12:00am 24.2 21.4 12.5 48 6.7 N 19 24 10 13 1022.4 1022.1 1.6
 
Date/Time
EST
Temp
°C
App
Temp
°C
Dew
Point
Rel
Hum
%
Delta-T
°C
Wind Press
QNH
hPa
Press
MSL
hPa
Rain
since 9 am
mm
Dir
 
Spd
km/h
Gust
km/h
Spd
kts
Gust
kts
15/11:30pm 26.3 22.6 11.6 40 8.4 NNW 22 33 12 18 1022.1 1021.8 1.6
15/11:00pm 23.8 21.0 14.2 55 5.7 NNW 22 32 12 17 1022.4 1022.1 1.6
15/10:54pm 23.5 20.4 14.5 57 5.3 NNW 24 32 13 17 1022.6 1022.3 1.6
15/10:39pm 22.9 20.9 15.5 63 4.5 NW 20 26 11 14 1023.6 1023.3 1.6
15/10:30pm 23.0 20.7 15.8 64 4.4 NNW 22 33 12 18 1023.6 1023.3 1.6
15/10:18pm 22.3 21.6 16.3 69 3.7 NW 15 28 8 15 1024.3 1024.0 1.6
15/10:01pm 22.4 22.2 16.7 70 3.5 W 13 22 7 12 1025.3 1024.9 1.6
15/10:00pm 22.4 22.5 16.4 69 3.6 WSW 11 22 6 12 1025.4 1025.0 1.6

Other Formats:

Comma delimited format used in spreadsheet applications
http://www.bom.gov.au/fwo/IDN60801/IDN60801.95715.axf

JavaScript Object Notation format (JSON) in row-major order
http://www.bom.gov.au/fwo/IDN60801/IDN60801.95715.json